Grenada, California
Current Conditions -  °F | °C
As of 2:53 AM on Sunday 23 Nov 2014 (Local Time) from KSIY Reporting Station
Clear Clear  
Wind Chill: 22°   Ceiling: Unl
Heat Index: 30°   Visibility: 10mi
Dew Point: 28°   Wind: 8mph
Humidity: 92%   Direction: 100°E
Pressure: 30.36"   Gusts: NA
Location:  41.65°N, 122.52°W
Report Text: KSIY 231053Z AUTO 10007KT 10SM CLR M01/M02 A3036 RMK AO2 SLP302 T10111022
Loading
Personal Weather Stations






























Interactive Weather Map New forecast layout! Learn more

10-Day Weather Forecast

Advertisements
Track Severe Weather on mobile